KENV

Wendover Airport

Wendover, Utah, USA
METAR KENV 221356Z AUTO 05004KT 10SM CLR 06/02 A3011 RMK AO2 SLP191 T00560017
Observed Flight Rules
Oct-22 @ 13:56 UTC (23 minutes ago) Visual Flight Rules
Wind Visibility Clouds
50° at 4 knots 10 miles
  • Clear skies
Temperatures Readings
Current 6°C / 43°F
Dewpoint 2°C / 36°F
Humidity 76%
Altimeter 30.11" Hg
Pressure 1019.1 hPa
Elevation 1292
METAR KENV 221356Z AUTO 05004KT 10SM CLR 06/02 A3011 RMK AO2 SLP191 T00560017
Observed Flight Rules
Oct-22 @ 13:56 UTC
(23 minutes ago)
VFR
Wind Visibility
50° at 4 knots 10 miles
Clouds
  • Clear skies
Temperature Dewpoint
6°C / 43°F 2°C / 36°F
Humidity Altimeter Pressure
76% 30.11" Hg 1019.1 hPa